Terminal Aerodrome Forecast
Issued by NWS

Home | Current Version | Previous Version | Text Only | Print | Product List | Glossary On
Versions: 1 2 3 4 5 6 7 8 9 10 11 12 13 14 15 16 17 18 19
274
FTUS44 KMAF 281808 AAB
TAFPEQ
TAF AMD
KPEQ 281808Z 2818/2918 24009KT P6SM SCT250
     FM282000 26020G30KT P6SM SCT110 SCT250
     FM290100 25015KT P6SM FEW100 SCT200
     FM291600 27023G33KT P6SM SCT070 SCT250=

USA.gov is the U.S. government's official web portal to all federal, state and local government web resources and services.